createdAt,value
2019-01-16T00:02:17.786Z,7.20
2019-01-16T00:07:37.902Z,7.20
2019-01-16T00:12:40.869Z,7.10
2019-01-16T00:17:54.752Z,7.10
2019-01-16T00:23:09.162Z,7.20
2019-01-16T00:28:27.606Z,7.20
2019-01-16T00:33:37.291Z,7.30
2019-01-16T00:38:48.805Z,7.20
2019-01-16T00:43:53.909Z,7.20
2019-01-16T00:48:58.713Z,7.10
2019-01-16T00:54:11.226Z,7.10
2019-01-16T00:59:32.915Z,7.10
2019-01-16T01:04:44.092Z,7.10
2019-01-16T01:09:55.394Z,7.20
2019-01-16T01:15:06.243Z,7.20
2019-01-16T01:20:37.021Z,7.00
2019-01-16T01:25:48.004Z,7.00
2019-01-16T01:30:48.419Z,7.10
2019-01-16T01:35:59.479Z,7.20
2019-01-16T01:41:10.903Z,7.30
2019-01-16T01:46:15.810Z,7.20
2019-01-16T01:51:27.161Z,8.00
2019-01-16T01:56:38.155Z,7.10
2019-01-16T02:01:49.419Z,7.10
2019-01-16T02:07:08.167Z,7.20
2019-01-16T02:12:19.876Z,7.30
2019-01-16T02:17:38.057Z,7.30
2019-01-16T02:23:02.837Z,7.20
2019-01-16T02:28:18.103Z,7.10
2019-01-16T02:33:31.503Z,7.10
2019-01-16T02:38:52.961Z,7.40
2019-01-16T02:44:01.874Z,7.30
2019-01-16T02:49:22.075Z,7.50
2019-01-16T02:54:36.875Z,7.50
2019-01-16T02:59:58.636Z,7.30
2019-01-16T03:05:13.629Z,7.40
2019-01-16T03:10:29.067Z,7.50
2019-01-16T03:15:53.898Z,7.30
2019-01-16T03:21:06.368Z,7.10
2019-01-16T03:26:16.513Z,7.10
2019-01-16T03:31:31.605Z,7.10
2019-01-16T03:36:49.898Z,7.00
2019-01-16T03:42:00.604Z,7.00
2019-01-16T03:47:13.094Z,7.10
2019-01-16T03:52:24.261Z,7.10
2019-01-16T03:57:49.052Z,7.10
2019-01-16T04:03:04.280Z,7.10
2019-01-16T04:08:43.228Z,7.10
2019-01-16T04:13:55.809Z,7.10
2019-01-16T04:19:08.311Z,7.10
2019-01-16T04:24:09.796Z,7.20
2019-01-16T04:29:21.194Z,7.10
2019-01-16T04:34:33.626Z,7.20
2019-01-16T04:39:48.831Z,7.20
2019-01-16T04:45:00.096Z,7.10
2019-01-16T04:50:05.302Z,7.10
2019-01-16T04:55:17.732Z,7.10
2019-01-16T05:00:36.643Z,7.10
2019-01-16T05:05:52.822Z,7.10
2019-01-16T05:11:08.288Z,7.10
2019-01-16T05:16:23.765Z,7.10
2019-01-16T05:21:40.762Z,7.10
2019-01-16T05:26:51.889Z,7.50
2019-01-16T05:32:13.452Z,7.00
2019-01-16T05:37:24.564Z,7.00
2019-01-16T05:42:40.069Z,7.10
2019-01-16T05:47:49.664Z,7.00
2019-01-16T05:52:58.646Z,7.00
2019-01-16T05:58:09.952Z,7.00
2019-01-16T06:03:21.321Z,7.00
2019-01-16T06:08:49.175Z,7.00
2019-01-16T06:14:04.669Z,7.00
2019-01-16T06:19:22.976Z,7.00
2019-01-16T06:24:38.203Z,7.00
2019-01-16T06:30:05.713Z,7.00
2019-01-16T06:35:18.987Z,7.00
2019-01-16T06:40:29.376Z,7.00
2019-01-16T06:45:29.946Z,7.00
2019-01-16T06:50:34.631Z,7.00
2019-01-16T06:55:56.414Z,6.90
2019-01-16T07:01:00.122Z,6.90
2019-01-16T07:06:04.214Z,6.80
2019-01-16T07:11:28.825Z,6.80
2019-01-16T07:16:53.436Z,6.70
2019-01-16T07:21:58.311Z,6.70
2019-01-16T07:27:07.739Z,6.70
2019-01-16T07:32:19.344Z,6.60
2019-01-16T07:37:38.062Z,6.60
2019-01-16T07:42:49.108Z,6.60
2019-01-16T07:48:19.989Z,6.60
2019-01-16T07:53:31.772Z,6.60
2019-01-16T07:58:46.955Z,6.60
2019-01-16T08:03:56.002Z,6.50
2019-01-16T08:09:14.066Z,6.60
2019-01-16T08:14:25.233Z,6.60
2019-01-16T08:19:37.870Z,6.60
2019-01-16T08:24:54.584Z,6.70
2019-01-16T08:30:13.130Z,6.60
2019-01-16T08:35:31.976Z,6.60
2019-01-16T08:40:54.454Z,6.50
2019-01-16T08:46:05.571Z,6.50
2019-01-16T08:51:10.364Z,6.50
2019-01-16T08:56:21.856Z,6.60
2019-01-16T09:01:33.193Z,6.50
2019-01-16T09:06:38.926Z,6.60
2019-01-16T09:11:49.722Z,6.60
2019-01-16T09:16:49.338Z,6.60
2019-01-16T09:22:01.846Z,6.60
2019-01-16T09:27:13.115Z,6.60
2019-01-16T09:32:34.235Z,6.70
2019-01-16T09:37:46.712Z,6.70
2019-01-16T09:43:03.901Z,6.60
2019-01-16T09:48:11.092Z,6.70
2019-01-16T09:53:42.580Z,6.70
2019-01-16T09:58:50.546Z,6.80
2019-01-16T10:04:01.333Z,6.90
2019-01-16T10:09:28.848Z,6.80
2019-01-16T10:14:39.994Z,6.70
2019-01-16T10:19:50.876Z,6.60
2019-01-16T10:25:18.929Z,6.70
2019-01-16T10:30:35.444Z,6.70
2019-01-16T10:35:51.284Z,6.60
2019-01-16T10:41:06.593Z,6.70
2019-01-16T10:46:39.359Z,6.80
2019-01-16T10:52:02.522Z,6.90
2019-01-16T10:57:16.543Z,6.90
2019-01-16T11:02:29.259Z,6.90
2019-01-16T11:07:47.929Z,6.80
2019-01-16T11:13:03.033Z,6.80
2019-01-16T11:18:26.798Z,6.80
2019-01-16T11:23:40.019Z,6.90
2019-01-16T11:28:48.278Z,7.00
2019-01-16T11:34:03.862Z,6.90
2019-01-16T11:39:19.440Z,6.80
2019-01-16T11:44:26.341Z,6.80
2019-01-16T11:49:37.416Z,6.90
2019-01-16T11:54:56.072Z,6.90
2019-01-16T12:00:08.503Z,6.90
2019-01-16T12:05:17.374Z,7.00
2019-01-16T12:10:29.561Z,7.00
2019-01-16T12:15:47.588Z,7.00
2019-01-16T12:20:54.215Z,6.90
2019-01-16T12:26:13.946Z,6.90
2019-01-16T12:31:32.443Z,7.00
2019-01-16T12:36:59.853Z,7.10
2019-01-16T12:42:10.333Z,7.00
2019-01-16T12:47:25.524Z,7.10
2019-01-16T12:52:24.962Z,7.10
2019-01-16T12:57:36.115Z,7.20
2019-01-16T13:02:57.253Z,7.20
2019-01-16T13:08:04.214Z,7.20
2019-01-16T13:13:15.655Z,7.30
2019-01-16T13:18:34.114Z,7.50
2019-01-16T13:23:45.338Z,7.50
2019-01-16T13:28:56.777Z,7.40
2019-01-16T13:34:20.164Z,7.40
2019-01-16T13:39:31.045Z,7.40
2019-01-16T13:44:49.292Z,7.30
2019-01-16T13:50:07.487Z,7.50
2019-01-16T14:00:36.071Z,7.70
2019-01-16T14:05:48.566Z,7.90
2019-01-16T14:10:49.953Z,8.00
2019-01-16T14:15:53.183Z,7.90
2019-01-16T14:21:17.654Z,7.90
2019-01-16T14:26:36.343Z,7.60
2019-01-16T14:32:04.011Z,7.40
2019-01-16T14:37:19.465Z,7.20
2019-01-16T14:42:31.932Z,7.10
2019-01-16T14:47:42.532Z,7.00
2019-01-16T14:52:48.815Z,7.00
2019-01-16T14:58:01.301Z,7.10
2019-01-16T15:03:26.307Z,7.00
2019-01-16T15:08:38.028Z,7.00
2019-01-16T15:14:00.402Z,6.90
2019-01-16T15:19:04.112Z,6.90
2019-01-16T15:24:21.580Z,6.80
2019-01-16T15:29:32.984Z,6.70
2019-01-16T15:34:55.032Z,6.50
2019-01-16T15:40:05.269Z,6.40
2019-01-16T15:45:13.392Z,6.30
2019-01-16T15:50:26.132Z,6.30
2019-01-16T15:55:31.619Z,6.30
2019-01-16T16:00:42.654Z,6.20
2019-01-16T16:06:08.241Z,6.20
2019-01-16T16:11:26.665Z,6.20
2019-01-16T16:16:37.258Z,6.10
2019-01-16T16:22:01.962Z,6.00
2019-01-16T16:27:32.772Z,6.00
2019-01-16T16:32:40.668Z,6.00
2019-01-16T16:37:51.889Z,5.90
2019-01-16T16:42:53.882Z,5.90
2019-01-16T16:48:15.153Z,5.80
2019-01-16T16:53:26.231Z,5.80
2019-01-16T16:58:54.319Z,5.80
2019-01-16T17:04:07.754Z,5.80
2019-01-16T17:09:12.013Z,5.80
2019-01-16T17:14:36.640Z,5.70
2019-01-16T17:19:38.343Z,5.70
2019-01-16T17:24:45.926Z,5.60
2019-01-16T17:29:49.533Z,5.60
2019-01-16T17:34:54.455Z,5.60
2019-01-16T17:40:09.962Z,5.70
2019-01-16T17:45:22.276Z,5.60
2019-01-16T17:50:34.733Z,5.60
2019-01-16T17:56:05.663Z,5.70
2019-01-16T18:01:05.311Z,5.60
2019-01-16T18:06:17.865Z,5.40
2019-01-16T18:11:39.369Z,5.60
2019-01-16T18:16:50.506Z,5.50
2019-01-16T18:22:01.485Z,5.50
2019-01-16T18:27:23.346Z,5.50
2019-01-16T18:32:34.470Z,5.40
2019-01-16T18:37:49.974Z,5.40
2019-01-16T18:43:02.492Z,5.40
2019-01-16T18:48:14.967Z,5.40
2019-01-16T18:53:39.908Z,5.40
2019-01-16T18:58:52.352Z,5.30
2019-01-16T19:04:12.445Z,5.30
2019-01-16T19:09:26.260Z,5.30
2019-01-16T19:14:37.784Z,5.90
2019-01-16T19:19:50.480Z,5.30
2019-01-16T19:25:09.235Z,5.50
2019-01-16T19:30:28.670Z,5.60
2019-01-16T19:35:43.738Z,5.70
2019-01-16T19:40:59.255Z,5.80
2019-01-16T19:46:17.518Z,5.80
2019-01-16T19:51:25.619Z,5.80
2019-01-16T19:56:33.988Z,5.80
2019-01-16T20:01:55.786Z,5.80
2019-01-16T20:07:05.738Z,5.90
2019-01-16T20:12:16.833Z,5.90
2019-01-16T20:17:24.134Z,6.00
2019-01-16T20:22:36.714Z,6.00
2019-01-16T20:27:48.219Z,6.00
2019-01-16T20:33:09.664Z,6.00
2019-01-16T20:38:21.152Z,6.00
2019-01-16T20:43:32.674Z,6.10
2019-01-16T20:48:43.762Z,6.10
2019-01-16T20:53:45.320Z,6.10
2019-01-16T20:58:47.398Z,6.20
2019-01-16T21:03:58.957Z,6.20
2019-01-16T21:08:59.328Z,6.20
2019-01-16T21:14:10.496Z,6.20
2019-01-16T21:19:26.081Z,6.20
2019-01-16T21:24:37.175Z,6.20
2019-01-16T21:30:07.609Z,6.20
2019-01-16T21:35:20.856Z,6.20
2019-01-16T21:40:36.132Z,6.20
2019-01-16T21:45:47.222Z,6.20
2019-01-16T21:50:58.613Z,6.20
2019-01-16T21:56:29.516Z,6.20
2019-01-16T22:01:40.952Z,6.20
2019-01-16T22:06:52.835Z,6.30
2019-01-16T22:12:09.637Z,6.30
2019-01-16T22:17:22.111Z,6.20
2019-01-16T22:22:27.618Z,6.30
2019-01-16T22:27:42.226Z,6.30
2019-01-16T22:32:45.813Z,6.30
2019-01-16T22:37:55.687Z,6.30
2019-01-16T22:43:06.855Z,6.30
2019-01-16T22:48:10.608Z,6.30
2019-01-16T22:53:21.931Z,6.40
2019-01-16T22:58:36.999Z,6.40
2019-01-16T23:03:58.662Z,6.40
2019-01-16T23:09:06.923Z,6.40
2019-01-16T23:14:37.651Z,6.60
2019-01-16T23:19:54.210Z,6.50
2019-01-16T23:25:05.487Z,6.50
2019-01-16T23:30:17.444Z,6.60
2019-01-16T23:35:31.323Z,6.60
2019-01-16T23:40:43.920Z,6.70
2019-01-16T23:46:02.543Z,6.60
2019-01-16T23:51:14.145Z,6.70
2019-01-16T23:56:19.484Z,6.70
